Proud — 9HWA9 — position and weather

sailwx.info

Track history (hours):
 
Tides and Currents Weather Stations Pressure Air Temp Water Temp Dewpoint Dewpoint Depression Visibility Wind Speed Wind Dir Waves Ship Positions

Proud

Last reported at 2015-Aug-16 14:20 UTC. Time now 2015-Aug-30 01:37 UTC.
Position S 33°30' E 027°30'.
Warning: this ship's position is 13 days out of date.

Length 292 m; draft 10.9 m.

Type: Cargo ship. MMSI: 249619000.

Date/timePositionNaut miles runAvg speedWind from/ knotsBaromVisibWave heightAir tempDewpointWater temp
2015-Aug-16 14:20S 33°30' E 027°30'20411.9
2015-Aug-15 21:11S 31°10' E 030°25'813.0
2015-Aug-15 20:33S 31°04' E 030°32'1313.5
2015-Aug-15 19:33S 30°52' E 030°40'1313.4
2015-Aug-15 18:33S 30°41' E 030°47'1413.6
2015-Aug-15 17:33S 30°29' E 030°55'1313.0
2015-Aug-15 16:33S 30°17' E 031°02'1211.9
2015-Aug-15 15:33S 30°07' E 031°08'1211.6
2015-Aug-15 14:33S 29°55' E 031°09'2 2.2
2015-Aug-15 13:33S 29°53' E 031°08'4 4.3
2015-Aug-15 12:33S 29°57' E 031°11'2 2.0
2015-Aug-15 11:33S 29°55' E 031°10'3 3.2
2015-Aug-15 10:33S 29°53' E 031°07'1 1.3
2015-Aug-15 09:33S 29°53' E 031°09'3 3.2
2015-Aug-15 08:33S 29°52' E 031°13'8 7.8
2015-Aug-15 07:33S 29°46' E 031°19'1212.4
2015-Aug-15 06:33S 29°39' E 031°30'1212.4
2015-Aug-15 05:33S 29°31' E 031°42'1312.8
2015-Aug-15 04:34S 29°24' E 031°54'  
Track history (hours):
 
Tides and Currents Weather Stations Pressure Air Temp Water Temp Dewpoint Dewpoint Depression Visibility Wind Speed Wind Dir Waves Ship Positions

Proud

Last reported at 2015-Aug-16 14:20 UTC. Time now 2015-Aug-30 01:37 UTC.
Position S 33°30' E 027°30'.
Warning: this ship's position is 13 days out of date.

Length 292 m; draft 10.9 m.

Type: Cargo ship. MMSI: 249619000.

Date/timePositionNaut miles runAvg speedWind from/ knotsBaromVisibWave heightAir tempDewpointWater temp
2015-Aug-16 14:20S 33°30' E 027°30'20411.9
2015-Aug-15 21:11S 31°10' E 030°25'813.0
2015-Aug-15 20:33S 31°04' E 030°32'1313.5
2015-Aug-15 19:33S 30°52' E 030°40'1313.4
2015-Aug-15 18:33S 30°41' E 030°47'1413.6
2015-Aug-15 17:33S 30°29' E 030°55'1313.0
2015-Aug-15 16:33S 30°17' E 031°02'1211.9
2015-Aug-15 15:33S 30°07' E 031°08'1211.6
2015-Aug-15 14:33S 29°55' E 031°09'2 2.2
2015-Aug-15 13:33S 29°53' E 031°08'4 4.3
2015-Aug-15 12:33S 29°57' E 031°11'2 2.0
2015-Aug-15 11:33S 29°55' E 031°10'3 3.2
2015-Aug-15 10:33S 29°53' E 031°07'1 1.3
2015-Aug-15 09:33S 29°53' E 031°09'3 3.2
2015-Aug-15 08:33S 29°52' E 031°13'8 7.8
2015-Aug-15 07:33S 29°46' E 031°19'1212.4
2015-Aug-15 06:33S 29°39' E 031°30'1212.4
2015-Aug-15 05:33S 29°31' E 031°42'1312.8
2015-Aug-15 04:34S 29°24' E 031°54'  

Dump ship's entire track history